Time,TemperatureF,DewpointF,PressureIn,WindDirection,WindDirectionDegrees,WindSpeedMPH,WindSpeedGustMPH,Humidity,HourlyPrecipIn,Conditions,Clouds,dailyrainin,SoftwareType,DateUTC
2013-05-19 00:02:00,78.0,69.0,29.80,SSE,162,0.0,-999.0,75,-99.99,,,-99.99,,2013-05-19 05:02:00,
2013-05-19 00:12:00,78.0,69.0,29.80,SSE,162,0.0,-999.0,75,-99.99,,,-99.99,,2013-05-19 05:12:00,
2013-05-19 00:22:00,78.0,70.0,29.80,SSE,161,0.0,-999.0,76,-99.99,,,-99.99,,2013-05-19 05:22:00,
2013-05-19 00:32:00,77.0,69.0,29.80,South,179,0.0,-999.0,77,-99.99,,,-99.99,,2013-05-19 05:32:00,
2013-05-19 00:42:00,71.0,59.0,29.87,WNW,284,10.0,-999.0,66,-99.99,,,-99.99,,2013-05-19 05:42:00,
2013-05-19 00:52:00,71.0,59.0,29.87,WNW,284,10.0,-999.0,66,-99.99,,,-99.99,,2013-05-19 05:52:00,
2013-05-19 01:02:00,69.0,61.0,29.87,SW,224,7.0,-999.0,77,-99.99,,,-99.99,,2013-05-19 06:02:00,
2013-05-19 01:12:00,69.0,61.0,29.87,SW,224,7.0,-999.0,77,-99.99,,,-99.99,,2013-05-19 06:12:00,
2013-05-19 01:42:00,65.0,62.0,29.80,North,-999,-999.0,-999.0,91,-99.99,,,-99.99,,2013-05-19 06:42:00,
2013-05-19 01:52:00,65.0,62.0,29.80,North,-999,-999.0,-999.0,91,-99.99,,,-99.99,,2013-05-19 06:52:00,
2013-05-19 02:01:00,65.0,63.0,29.80,WSW,254,0.0,-999.0,92,-99.99,,,-99.99,,2013-05-19 07:01:00,
2013-05-19 02:11:00,65.0,63.0,29.80,WSW,254,0.0,-999.0,92,-99.99,,,-99.99,,2013-05-19 07:11:00,
2013-05-19 02:21:00,65.0,63.0,29.80,SW,226,0.0,-999.0,93,-99.99,,,-99.99,,2013-05-19 07:21:00,
2013-05-19 02:32:00,65.0,63.0,29.78,ESE,116,1.0,-999.0,93,-99.99,,,-99.99,,2013-05-19 07:32:00,
2013-05-19 02:42:00,65.0,63.0,29.78,ESE,116,1.0,-999.0,93,-99.99,,,-99.99,,2013-05-19 07:42:00,
2013-05-19 02:52:00,65.0,63.0,29.73,East,93,2.0,-999.0,93,-99.99,,,-99.99,,2013-05-19 07:52:00,
2013-05-19 03:01:00,65.0,63.0,29.73,ENE,68,1.0,-999.0,93,-99.99,,,-99.99,,2013-05-19 08:01:00,
2013-05-19 03:12:00,65.0,63.0,29.73,ENE,68,1.0,-999.0,93,-99.99,,,-99.99,,2013-05-19 08:12:00,
2013-05-19 03:22:00,65.0,63.0,29.76,East,79,0.0,-999.0,93,-99.99,,,-99.99,,2013-05-19 08:22:00,
2013-05-19 03:32:00,65.0,63.0,29.76,SE,130,1.0,-999.0,92,-99.99,,,-99.99,,2013-05-19 08:32:00,
2013-05-19 03:42:00,65.0,63.0,29.76,SE,130,1.0,-999.0,92,-99.99,,,-99.99,,2013-05-19 08:42:00,
2013-05-19 03:52:00,64.0,62.0,29.76,ESE,123,0.0,-999.0,92,-99.99,,,-99.99,,2013-05-19 08:52:00,
2013-05-19 04:02:00,64.0,62.0,29.76,ESE,113,1.0,-999.0,92,-99.99,,,-99.99,,2013-05-19 09:02:00,
2013-05-19 04:11:00,64.0,62.0,29.76,ESE,113,1.0,-999.0,92,-99.99,,,-99.99,,2013-05-19 09:11:00,
2013-05-19 04:21:00,64.0,61.0,29.74,SE,131,1.0,-999.0,91,-99.99,,,-99.99,,2013-05-19 09:21:00,
2013-05-19 04:32:00,65.0,62.0,29.74,ESE,106,1.0,-999.0,91,-99.99,,,-99.99,,2013-05-19 09:32:00,
2013-05-19 04:42:00,65.0,62.0,29.74,ESE,106,1.0,-999.0,91,-99.99,,,-99.99,,2013-05-19 09:42:00,
2013-05-19 04:53:00,65.0,62.0,29.73,SE,127,2.0,-999.0,89,-99.99,,,-99.99,,2013-05-19 09:53:00,
2013-05-19 05:02:00,66.0,62.0,29.73,ESE,113,2.0,-999.0,88,-99.99,,,-99.99,,2013-05-19 10:02:00,
2013-05-19 05:12:00,67.0,63.0,29.72,East,90,1.0,-999.0,88,-99.99,,,-99.99,,2013-05-19 10:12:00,
2013-05-19 05:22:00,67.0,63.0,29.72,East,90,1.0,-999.0,88,-99.99,,,-99.99,,2013-05-19 10:22:00,
2013-05-19 05:32:00,67.0,64.0,29.72,SSE,155,1.0,-999.0,89,-99.99,,,-99.99,,2013-05-19 10:32:00,
2013-05-19 05:42:00,67.0,64.0,29.72,SSE,155,1.0,-999.0,89,-99.99,,,-99.99,,2013-05-19 10:42:00,
2013-05-19 05:52:00,67.0,64.0,29.75,SE,140,0.0,-999.0,90,-99.99,,,-99.99,,2013-05-19 10:52:00,
2013-05-19 06:02:00,67.0,64.0,29.75,SE,140,0.0,-999.0,90,-99.99,,,-99.99,,2013-05-19 11:02:00,
2013-05-19 06:11:00,67.0,64.0,29.75,SE,140,0.0,-999.0,90,-99.99,,,-99.99,,2013-05-19 11:11:00,
2013-05-19 06:21:00,68.0,65.0,29.76,SE,140,0.0,-999.0,90,-99.99,,,-99.99,,2013-05-19 11:21:00,
2013-05-19 06:32:00,68.0,65.0,29.76,SE,140,0.0,-999.0,90,-99.99,,,-99.99,,2013-05-19 11:32:00,
2013-05-19 06:42:00,68.0,65.0,29.76,SE,140,0.0,-999.0,90,-99.99,,,-99.99,,2013-05-19 11:42:00,
2013-05-19 06:52:00,69.0,66.0,29.77,SE,140,0.0,-999.0,90,-99.99,,,-99.99,,2013-05-19 11:52:00,
2013-05-19 07:01:00,69.0,66.0,29.77,SE,140,0.0,-999.0,91,-99.99,,,-99.99,,2013-05-19 12:01:00,
2013-05-19 07:11:00,69.0,66.0,29.77,SE,140,0.0,-999.0,91,-99.99,,,-99.99,,2013-05-19 12:11:00,
2013-05-19 07:21:00,69.0,66.0,29.76,SE,138,0.0,-999.0,90,-99.99,,,-99.99,,2013-05-19 12:21:00,
2013-05-19 07:31:00,69.0,66.0,29.76,SE,138,0.0,-999.0,90,-99.99,,,-99.99,,2013-05-19 12:31:00,
2013-05-19 07:41:00,69.0,66.0,29.76,SE,138,0.0,-999.0,90,-99.99,,,-99.99,,2013-05-19 12:41:00,
2013-05-19 07:52:00,70.0,66.0,29.75,SE,143,0.0,-999.0,88,-99.99,,,-99.99,,2013-05-19 12:52:00,
2013-05-19 08:01:00,71.0,67.0,29.75,SE,141,0.0,-999.0,86,-99.99,,,-99.99,,2013-05-19 13:01:00,
2013-05-19 08:11:00,71.0,67.0,29.75,SE,141,0.0,-999.0,86,-99.99,,,-99.99,,2013-05-19 13:11:00,
2013-05-19 08:21:00,72.0,66.0,29.74,SSW,203,1.0,-999.0,82,-99.99,,,-99.99,,2013-05-19 13:21:00,
2013-05-19 08:32:00,73.0,67.0,29.74,South,182,1.0,-999.0,81,-99.99,,,-99.99,,2013-05-19 13:32:00,
2013-05-19 08:42:00,73.0,67.0,29.74,South,182,1.0,-999.0,81,-99.99,,,-99.99,,2013-05-19 13:42:00,
2013-05-19 08:52:00,74.0,66.0,29.74,South,186,1.0,-999.0,77,-99.99,,,-99.99,,2013-05-19 13:52:00,
2013-05-19 09:02:00,75.0,67.0,29.74,SE,140,1.0,-999.0,75,-99.99,,,-99.99,,2013-05-19 14:02:00,
2013-05-19 09:11:00,75.0,67.0,29.74,SE,140,1.0,-999.0,75,-99.99,,,-99.99,,2013-05-19 14:11:00,
2013-05-19 09:21:00,75.0,66.0,29.74,SW,233,2.0,-999.0,73,-99.99,,,-99.99,,2013-05-19 14:21:00,
2013-05-19 09:32:00,76.0,66.0,29.74,East,92,2.0,-999.0,72,-99.99,,,-99.99,,2013-05-19 14:32:00,
2013-05-19 09:41:00,76.0,66.0,29.74,East,92,2.0,-999.0,72,-99.99,,,-99.99,,2013-05-19 14:41:00,
2013-05-19 09:52:00,76.0,66.0,29.75,SE,133,1.0,-999.0,72,-99.99,,,-99.99,,2013-05-19 14:52:00,
2013-05-19 10:01:00,76.0,66.0,29.75,SW,219,1.0,-999.0,71,-99.99,,,-99.99,,2013-05-19 15:01:00,
2013-05-19 10:11:00,76.0,66.0,29.75,SW,219,1.0,-999.0,71,-99.99,,,-99.99,,2013-05-19 15:11:00,
2013-05-19 10:21:00,76.0,66.0,29.74,South,189,1.0,-999.0,72,-99.99,,,-99.99,,2013-05-19 15:21:00,
2013-05-19 10:33:00,76.0,65.0,29.74,SE,137,0.0,-999.0,70,-99.99,,,-99.99,,2013-05-19 15:33:00,
2013-05-19 10:43:00,76.0,65.0,29.74,SE,137,0.0,-999.0,70,-99.99,,,-99.99,,2013-05-19 15:43:00,
2013-05-19 10:53:00,76.0,65.0,29.73,SSW,195,1.0,-999.0,70,-99.99,,,-99.99,,2013-05-19 15:53:00,
2013-05-19 11:03:00,76.0,65.0,29.73,SE,136,1.0,-999.0,69,-99.99,,,-99.99,,2013-05-19 16:03:00,
2013-05-19 11:12:00,76.0,65.0,29.73,SE,136,1.0,-999.0,69,-99.99,,,-99.99,,2013-05-19 16:12:00,
2013-05-19 11:23:00,76.0,65.0,29.73,WSW,254,1.0,-999.0,70,-99.99,,,-99.99,,2013-05-19 16:23:00,
2013-05-19 11:32:00,76.0,65.0,29.73,WSW,254,1.0,-999.0,70,-99.99,,,-99.99,,2013-05-19 16:32:00,
2013-05-19 11:42:00,76.0,65.0,29.73,WSW,254,1.0,-999.0,70,-99.99,,,-99.99,,2013-05-19 16:42:00,
2013-05-19 11:52:00,76.0,65.0,29.72,NNE,21,1.0,-999.0,69,-99.99,,,-99.99,,2013-05-19 16:52:00,
2013-05-19 12:02:00,77.0,66.0,29.72,SSE,157,1.0,-999.0,69,-99.99,,,-99.99,,2013-05-19 17:02:00,
2013-05-19 12:12:00,78.0,67.0,29.72,SE,138,1.0,-999.0,70,-99.99,,,-99.99,,2013-05-19 17:12:00,
2013-05-19 12:22:00,78.0,67.0,29.72,SE,138,1.0,-999.0,70,-99.99,,,-99.99,,2013-05-19 17:22:00,
2013-05-19 12:32:00,78.0,67.0,29.72,SW,220,2.0,-999.0,68,-99.99,,,-99.99,,2013-05-19 17:32:00,
2013-05-19 12:42:00,78.0,67.0,29.72,SW,220,2.0,-999.0,68,-99.99,,,-99.99,,2013-05-19 17:42:00,
2013-05-19 12:52:00,78.0,67.0,29.72,SSW,210,1.0,-999.0,69,-99.99,,,-99.99,,2013-05-19 17:52:00,
2013-05-19 13:02:00,78.0,67.0,29.72,ESE,109,1.0,-999.0,68,-99.99,,,-99.99,,2013-05-19 18:02:00,
2013-05-19 13:12:00,79.0,67.0,29.69,ENE,72,2.0,-999.0,66,-99.99,,,-99.99,,2013-05-19 18:12:00,
2013-05-19 13:22:00,79.0,67.0,29.69,ENE,72,2.0,-999.0,66,-99.99,,,-99.99,,2013-05-19 18:22:00,
2013-05-19 13:32:00,80.0,67.0,29.69,SSE,168,3.0,-999.0,65,-99.99,,,-99.99,,2013-05-19 18:32:00,
2013-05-19 13:42:00,80.0,67.0,29.69,SSE,168,3.0,-999.0,65,-99.99,,,-99.99,,2013-05-19 18:42:00,
2013-05-19 13:53:00,80.0,68.0,29.69,SSE,154,1.0,-999.0,66,-99.99,,,-99.99,,2013-05-19 18:53:00,
2013-05-19 14:01:00,80.0,68.0,29.69,SSE,157,2.0,-999.0,66,-99.99,,,-99.99,,2013-05-19 19:01:00,
2013-05-19 14:11:00,80.0,68.0,29.69,SSE,157,2.0,-999.0,66,-99.99,,,-99.99,,2013-05-19 19:11:00,
2013-05-19 14:21:00,81.0,68.0,29.67,East,90,2.0,-999.0,64,-99.99,,,-99.99,,2013-05-19 19:21:00,
2013-05-19 14:32:00,81.0,68.0,29.67,SSE,152,2.0,-999.0,64,-99.99,,,-99.99,,2013-05-19 19:32:00,
2013-05-19 14:42:00,81.0,68.0,29.67,SSE,152,2.0,-999.0,64,-99.99,,,-99.99,,2013-05-19 19:42:00,
2013-05-19 14:52:00,81.0,68.0,29.67,SSE,152,3.0,-999.0,65,-99.99,,,-99.99,,2013-05-19 19:52:00,
2013-05-19 15:02:00,81.0,68.0,29.67,NE,55,2.0,-999.0,65,-99.99,,,-99.99,,2013-05-19 20:02:00,
2013-05-19 15:11:00,81.0,68.0,29.67,NE,55,2.0,-999.0,65,-99.99,,,-99.99,,2013-05-19 20:11:00,
2013-05-19 15:21:00,81.0,69.0,29.67,SW,222,1.0,-999.0,67,-99.99,,,-99.99,,2013-05-19 20:21:00,
2013-05-19 15:32:00,81.0,69.0,29.67,SSE,168,1.0,-999.0,67,-99.99,,,-99.99,,2013-05-19 20:32:00,
2013-05-19 15:41:00,81.0,69.0,29.67,SSE,168,1.0,-999.0,67,-99.99,,,-99.99,,2013-05-19 20:41:00,
2013-05-19 15:52:00,80.0,68.0,29.66,SSE,167,1.0,-999.0,67,-99.99,,,-99.99,,2013-05-19 20:52:00,
2013-05-19 16:02:00,80.0,68.0,29.66,South,178,1.0,-999.0,67,-99.99,,,-99.99,,2013-05-19 21:02:00,
2013-05-19 16:11:00,80.0,68.0,29.66,South,178,1.0,-999.0,67,-99.99,,,-99.99,,2013-05-19 21:11:00,
2013-05-19 16:22:00,80.0,68.0,29.65,South,178,1.0,-999.0,68,-99.99,,,-99.99,,2013-05-19 21:22:00,
2013-05-19 16:32:00,80.0,68.0,29.65,SE,136,1.0,-999.0,67,-99.99,,,-99.99,,2013-05-19 21:32:00,
2013-05-19 16:43:00,80.0,68.0,29.65,SE,136,1.0,-999.0,67,-99.99,,,-99.99,,2013-05-19 21:43:00,
2013-05-19 16:53:00,81.0,69.0,29.64,SSE,150,2.0,-999.0,67,-99.99,,,-99.99,,2013-05-19 21:53:00,
2013-05-19 17:02:00,80.0,68.0,29.63,SSE,158,1.0,-999.0,67,-99.99,,,-99.99,,2013-05-19 22:02:00,
2013-05-19 17:12:00,80.0,68.0,29.63,SSE,158,1.0,-999.0,67,-99.99,,,-99.99,,2013-05-19 22:12:00,
2013-05-19 17:23:00,80.0,68.0,29.63,South,185,1.0,-999.0,66,-99.99,,,-99.99,,2013-05-19 22:23:00,
2013-05-19 17:33:00,79.0,67.0,29.63,East,92,2.0,-999.0,67,-99.99,,,-99.99,,2013-05-19 22:33:00,
2013-05-19 17:42:00,79.0,67.0,29.63,East,92,2.0,-999.0,67,-99.99,,,-99.99,,2013-05-19 22:42:00,
2013-05-19 17:52:00,79.0,68.0,29.62,SSE,155,2.0,-999.0,68,-99.99,,,-99.99,,2013-05-19 22:52:00,
2013-05-19 18:02:00,79.0,67.0,29.62,SE,145,2.0,-999.0,67,-99.99,,,-99.99,,2013-05-19 23:02:00,
2013-05-19 18:11:00,79.0,67.0,29.62,SE,145,2.0,-999.0,67,-99.99,,,-99.99,,2013-05-19 23:11:00,
2013-05-19 18:21:00,79.0,67.0,29.60,South,178,2.0,-999.0,67,-99.99,,,-99.99,,2013-05-19 23:21:00,
2013-05-19 18:32:00,79.0,67.0,29.60,SW,220,2.0,-999.0,67,-99.99,,,-99.99,,2013-05-19 23:32:00,
2013-05-19 18:42:00,79.0,67.0,29.57,South,184,3.0,-999.0,66,-99.99,,,-99.99,,2013-05-19 23:42:00,
2013-05-19 18:52:00,79.0,67.0,29.57,South,184,3.0,-999.0,66,-99.99,,,-99.99,,2013-05-19 23:52:00,
2013-05-19 19:02:00,79.0,66.0,29.57,South,188,3.0,-999.0,65,-99.99,,,-99.99,,2013-05-20 00:02:00,
2013-05-19 19:11:00,79.0,66.0,29.57,South,188,3.0,-999.0,65,-99.99,,,-99.99,,2013-05-20 00:11:00,
2013-05-19 19:21:00,79.0,66.0,29.60,ESE,117,2.0,-999.0,65,-99.99,,,-99.99,,2013-05-20 00:21:00,
2013-05-19 19:32:00,80.0,67.0,29.60,West,261,3.0,-999.0,64,-99.99,,,-99.99,,2013-05-20 00:32:00,
2013-05-19 19:42:00,80.0,67.0,29.60,West,261,3.0,-999.0,64,-99.99,,,-99.99,,2013-05-20 00:42:00,
2013-05-19 19:52:00,80.0,66.0,29.65,South,189,1.0,-999.0,63,-99.99,,,-99.99,,2013-05-20 00:52:00,
2013-05-19 20:01:00,80.0,66.0,29.65,SW,226,1.0,-999.0,62,-99.99,,,-99.99,,2013-05-20 01:01:00,
2013-05-19 20:11:00,80.0,66.0,29.65,SW,226,1.0,-999.0,62,-99.99,,,-99.99,,2013-05-20 01:11:00,
2013-05-19 20:21:00,80.0,67.0,29.66,SSW,203,1.0,-999.0,64,-99.99,,,-99.99,,2013-05-20 01:21:00,
2013-05-19 20:31:00,80.0,67.0,29.66,South,184,1.0,-999.0,65,-99.99,,,-99.99,,2013-05-20 01:31:00,
2013-05-19 20:42:00,80.0,67.0,29.66,South,184,1.0,-999.0,65,-99.99,,,-99.99,,2013-05-20 01:42:00,
2013-05-19 20:52:00,77.0,68.0,29.65,SSW,209,0.0,-999.0,74,-99.99,,,-99.99,,2013-05-20 01:52:00,
2013-05-19 21:02:00,76.0,68.0,29.65,South,189,1.0,-999.0,77,-99.99,,,-99.99,,2013-05-20 02:02:00,
2013-05-19 21:11:00,76.0,68.0,29.65,South,189,1.0,-999.0,77,-99.99,,,-99.99,,2013-05-20 02:11:00,
2013-05-19 21:21:00,75.0,67.0,29.64,WSW,241,3.0,-999.0,76,-99.99,,,-99.99,,2013-05-20 02:21:00,
2013-05-19 21:31:00,74.0,65.0,29.64,South,188,4.0,-999.0,73,-99.99,,,-99.99,,2013-05-20 02:31:00,
2013-05-19 21:42:00,74.0,65.0,29.64,South,188,4.0,-999.0,73,-99.99,,,-99.99,,2013-05-20 02:42:00,
2013-05-19 21:52:00,74.0,66.0,29.64,North,-999,-999.0,-999.0,75,-99.99,,,-99.99,,2013-05-20 02:52:00,